Time;durP1;ratioP1;P1;durP2;ratioP2;P2;SDS_P1;SDS_P2;PMS_P1;PMS_P2;Temp;Humidity;BMP_temperature;BMP_pressure;BME280_temperature;BME280_humidity;BME280_pressure;Samples;Min_cycle;Max_cycle;Signal;HPM_P1;HPM_P2
2022/12/12 00:00:28;;;;;;;;;37.25;32.25;;;;;3.05;61.78;100416.09;2096610;28;46618;-63
2022/12/12 00:01:35;;;;;;;;;28.00;27.75;;;;;3.06;61.71;100417.88;2096597;28;46274;-64
2022/12/12 00:02:37;;;;;;;;;30.80;26.20;;;;;3.05;61.67;100409.13;2079511;28;46635;-65
2022/12/12 00:03:38;;;;;;;;;33.40;29.80;;;;;3.05;61.63;100419.63;2079429;28;46450;-63
2022/12/12 00:04:38;;;;;;;;;27.25;27.25;;;;;3.04;61.52;100415.22;2096408;28;46708;-63
2022/12/12 00:05:39;;;;;;;;;30.50;25.25;;;;;3.02;61.50;100409.09;2096460;28;46418;-63
2022/12/12 00:06:39;;;;;;;;;29.75;29.00;;;;;3.02;61.59;100413.47;2096311;28;46455;-64
2022/12/12 00:07:40;;;;;;;;;24.25;23.75;;;;;3.02;61.55;100411.72;2096953;28;46146;-62
2022/12/12 00:08:40;;;;;;;;;28.75;28.75;;;;;3.01;61.33;100412.59;2096550;28;46240;-64
2022/12/12 00:09:41;;;;;;;;;32.00;30.25;;;;;3.01;61.33;100409.97;2096998;28;46150;-64
2022/12/12 00:10:41;;;;;;;;;33.75;33.75;;;;;2.99;61.57;100406.47;2104507;28;46419;-65
2022/12/12 00:11:41;;;;;;;;;26.25;24.50;;;;;3.00;61.82;100407.34;2104446;28;46324;-65
2022/12/12 00:12:42;;;;;;;;;29.75;27.00;;;;;2.99;61.48;100405.59;2096871;28;48076;-64
2022/12/12 00:13:43;;;;;;;;;30.75;29.00;;;;;2.98;61.51;100402.09;2096462;28;46315;-64
2022/12/12 00:14:43;;;;;;;;;35.60;32.00;;;;;3.00;61.55;100409.97;2096419;28;46898;-65
2022/12/12 00:15:43;;;;;;;;;29.00;27.50;;;;;2.99;61.54;100400.34;2097104;28;46616;-65
2022/12/12 00:16:44;;;;;;;;;36.75;33.25;;;;;3.02;61.83;100403.84;2096231;28;46615;-65
2022/12/12 00:17:44;;;;;;;;;34.75;32.75;;;;;3.03;61.91;100409.97;2096532;28;46453;-64
2022/12/12 00:18:44;;;;;;;;;25.00;24.25;;;;;3.04;61.76;100404.72;2096849;28;46664;-65
2022/12/12 00:19:45;;;;;;;;;34.25;31.25;;;;;3.03;61.51;100400.34;2096867;28;46957;-65
2022/12/12 00:20:50;;;;;;;;;33.50;32.25;;;;;3.02;61.61;100410.84;2096964;28;46679;-64
2022/12/12 00:21:51;;;;;;;;;36.80;30.80;;;;;2.96;61.44;100403.84;2096421;28;46353;-63
2022/12/12 00:22:51;;;;;;;;;35.25;29.75;;;;;2.95;61.57;100402.09;2096769;28;46307;-64
2022/12/12 00:23:52;;;;;;;;;33.25;30.50;;;;;2.94;61.80;100406.47;2096363;28;46225;-64
2022/12/12 00:24:52;;;;;;;;;32.25;29.75;;;;;2.95;61.72;100407.34;2095923;28;46415;-65
2022/12/12 00:26:03;;;;;;;;;24.50;24.50;;;;;2.94;61.67;100414.31;2089283;28;46684;-64
2022/12/12 00:27:03;;;;;;;;;29.20;29.00;;;;;2.94;61.76;100416.06;2093317;28;47088;-63
2022/12/12 00:28:04;;;;;;;;;31.50;26.75;;;;;2.98;61.81;100419.56;2093916;28;46488;-64
2022/12/12 00:29:04;;;;;;;;;26.25;25.00;;;;;2.99;61.83;100416.94;2096449;28;46757;-64
2022/12/12 00:30:05;;;;;;;;;36.25;33.50;;;;;2.98;62.04;100412.59;2101674;28;46313;-64
2022/12/12 00:31:06;;;;;;;;;33.40;29.20;;;;;3.03;61.91;100415.22;2103105;28;46418;-65
2022/12/12 00:32:06;;;;;;;;;36.75;28.25;;;;;3.05;61.89;100413.47;2102518;28;46418;-63
2022/12/12 00:33:06;;;;;;;;;32.50;32.25;;;;;3.05;62.02;100410.84;2100485;28;46172;-65
2022/12/12 00:34:07;;;;;;;;;28.00;24.25;;;;;3.05;62.13;100414.38;2102025;28;47479;-65
2022/12/12 00:35:07;;;;;;;;;31.75;27.25;;;;;3.02;62.07;100413.47;2104453;28;46661;-64
2022/12/12 00:36:08;;;;;;;;;40.25;32.00;;;;;3.03;61.90;100416.09;2076948;28;46496;-65
2022/12/12 00:37:08;;;;;;;;;34.00;33.00;;;;;3.01;61.94;100423.06;2073395;28;46412;-65
2022/12/12 00:38:09;;;;;;;;;37.75;29.25;;;;;3.02;61.62;100419.59;2103799;28;46389;-65
2022/12/12 00:39:09;;;;;;;;;36.00;31.75;;;;;3.01;61.83;100424.81;2103297;28;46473;-62
2022/12/12 00:40:11;;;;;;;;;27.50;25.25;;;;;3.01;62.09;100422.19;2103115;28;46712;-64
2022/12/12 00:41:11;;;;;;;;;34.00;30.20;;;;;3.01;61.98;100417.84;2101685;28;46840;-63
2022/12/12 00:42:11;;;;;;;;;33.25;28.50;;;;;3.02;61.96;100422.19;2103798;28;47171;-65
2022/12/12 00:43:12;;;;;;;;;33.00;26.75;;;;;3.02;61.93;100416.97;2103435;28;46231;-62
2022/12/12 00:44:12;;;;;;;;;36.75;34.25;;;;;3.04;61.82;100427.44;2103895;28;46689;-62
2022/12/12 00:45:12;;;;;;;;;30.25;28.50;;;;;3.05;61.80;100423.94;2104558;28;46384;-64
2022/12/12 00:46:19;;;;;;;;;28.00;26.00;;;;;3.06;61.89;100428.34;2101894;28;46877;-63
2022/12/12 00:47:20;;;;;;;;;34.00;30.80;;;;;3.06;61.63;100431.84;2103689;28;46747;-63
2022/12/12 00:48:20;;;;;;;;;27.75;27.25;;;;;3.06;61.71;100428.34;2102954;28;45039;-64
2022/12/12 00:49:20;;;;;;;;;24.75;23.00;;;;;3.07;62.04;100435.34;2102091;28;46998;-63
2022/12/12 00:50:21;;;;;;;;;27.00;25.75;;;;;3.07;61.86;100433.59;2103705;28;47038;-63
2022/12/12 00:51:24;;;;;;;;;26.50;25.75;;;;;3.08;61.68;100434.47;2102360;28;46877;-62
2022/12/12 00:52:24;;;;;;;;;26.20;23.60;;;;;3.06;61.72;100430.97;2101705;28;46831;-62
2022/12/12 00:53:24;;;;;;;;;22.25;21.75;;;;;3.05;61.39;100432.72;2104164;28;44959;-61
2022/12/12 00:54:25;;;;;;;;;24.25;24.25;;;;;3.06;61.82;100433.59;2101877;28;46553;-63
2022/12/12 00:55:26;;;;;;;;;24.25;19.00;;;;;3.09;61.91;100428.38;2093213;28;46980;-61
2022/12/12 00:56:27;;;;;;;;;25.60;22.60;;;;;3.09;61.57;100425.75;2091299;28;46304;-64
2022/12/12 00:57:28;;;;;;;;;22.20;22.20;;;;;3.09;61.63;100425.75;2103853;28;46374;-64
2022/12/12 00:58:29;;;;;;;;;25.50;23.50;;;;;3.10;61.85;100417.00;2103067;28;46694;-63
2022/12/12 00:59:29;;;;;;;;;30.80;22.40;;;;;3.10;61.75;100423.13;2102690;28;46253;-64
2022/12/12 01:00:30;;;;;;;;;24.50;23.25;;;;;3.13;61.81;100432.75;2099652;28;47036;-62
2022/12/12 01:01:32;;;;;;;;;31.25;26.75;;;;;3.13;61.91;100425.75;2099019;28;46579;-64
2022/12/12 01:02:32;;;;;;;;;29.80;26.20;;;;;3.15;61.94;100424.00;2095298;28;46571;-66
2022/12/12 01:03:33;;;;;;;;;21.25;20.75;;;;;3.17;62.01;100424.88;2092577;28;46935;-63
2022/12/12 01:04:34;;;;;;;;;29.20;26.20;;;;;3.18;62.26;100431.03;2097085;28;46524;-66
2022/12/12 01:05:34;;;;;;;;;31.50;25.00;;;;;3.18;62.11;100428.41;2103794;28;46850;-65
2022/12/12 01:06:35;;;;;;;;;24.50;20.50;;;;;3.16;61.64;100428.38;2102910;28;46613;-64
2022/12/12 01:07:36;;;;;;;;;32.75;28.75;;;;;3.16;61.84;100432.75;2102962;28;46345;-62
2022/12/12 01:08:38;;;;;;;;;29.00;25.25;;;;;3.18;61.79;100428.41;2097169;28;46845;-65
2022/12/12 01:09:38;;;;;;;;;25.00;23.20;;;;;3.16;61.91;100427.50;2096571;28;46762;-64
2022/12/12 01:10:39;;;;;;;;;31.25;28.50;;;;;3.15;61.84;100429.25;2096504;28;46493;-65
2022/12/12 01:11:39;;;;;;;;;31.50;27.75;;;;;3.15;61.59;100426.63;2096431;28;46444;-66
2022/12/12 01:12:40;;;;;;;;;26.50;26.50;;;;;3.15;61.83;100424.00;2096844;28;45666;-64
2022/12/12 01:13:42;;;;;;;;;29.00;26.00;;;;;3.16;61.76;100423.13;2096021;28;46381;-63
2022/12/12 01:14:42;;;;;;;;;29.00;27.00;;;;;3.18;62.00;100418.78;2096251;28;46598;-64
2022/12/12 01:15:42;;;;;;;;;25.00;24.50;;;;;3.18;62.44;100429.28;2096377;28;46327;-63
2022/12/12 01:16:43;;;;;;;;;30.75;28.75;;;;;3.21;62.02;100417.91;2096285;28;46243;-64
2022/12/12 01:17:43;;;;;;;;;31.75;24.25;;;;;3.20;61.59;100416.16;2096180;28;46245;-63
2022/12/12 01:18:43;;;;;;;;;26.50;23.25;;;;;3.19;61.46;100411.81;2096170;28;46688;-63
2022/12/12 01:19:44;;;;;;;;;19.00;19.00;;;;;3.18;61.52;100418.78;2096436;28;46650;-64
2022/12/12 01:20:45;;;;;;;;;25.75;24.25;;;;;3.16;61.60;100419.63;2096172;28;46606;-62
2022/12/12 01:21:45;;;;;;;;;23.40;22.20;;;;;3.15;61.41;100417.88;2096252;28;46995;-63
2022/12/12 01:22:46;;;;;;;;;27.75;25.25;;;;;3.10;61.73;100417.88;2086593;28;46612;-63
2022/12/12 01:23:47;;;;;;;;;29.20;24.80;;;;;3.08;61.34;100419.63;2085300;28;46822;-62
2022/12/12 01:24:47;;;;;;;;;28.50;25.50;;;;;3.06;61.23;100416.13;2096435;28;46573;-64
2022/12/12 01:25:48;;;;;;;;;11.00;11.00;;;;;3.06;61.58;100420.50;2096543;28;46025;-63
2022/12/12 01:26:48;;;;;;;;;25.50;23.75;;;;;3.06;61.47;100426.59;2096328;28;45457;-63
2022/12/12 01:27:49;;;;;;;;;26.75;25.50;;;;;3.06;61.68;100426.59;2096065;28;46919;-64
2022/12/12 01:28:50;;;;;;;;;29.00;26.00;;;;;3.05;61.17;100423.94;2096286;28;46553;-64
2022/12/12 01:29:51;;;;;;;;;26.20;25.20;;;;;3.03;61.16;100425.69;2096271;28;46146;-61
2022/12/12 01:30:51;;;;;;;;;31.75;28.50;;;;;2.99;61.02;100421.31;2096223;28;45031;-64
2022/12/12 01:31:51;;;;;;;;;24.50;23.00;;;;;2.97;61.14;100425.69;2096192;28;46812;-63
2022/12/12 01:32:53;;;;;;;;;26.00;22.50;;;;;2.95;61.44;100425.69;2095946;28;46308;-63
2022/12/12 01:33:54;;;;;;;;;22.80;21.80;;;;;2.95;61.34;100423.06;2095883;28;45676;-64
2022/12/12 01:34:54;;;;;;;;;29.25;25.25;;;;;2.94;61.41;100426.56;2096255;28;46518;-64
2022/12/12 01:35:55;;;;;;;;;37.25;31.50;;;;;2.95;61.42;100426.56;2095860;28;46621;-62
2022/12/12 01:36:55;;;;;;;;;26.40;23.20;;;;;2.97;61.58;100431.81;2096275;28;46842;-63
2022/12/12 01:37:56;;;;;;;;;24.75;23.00;;;;;2.99;61.57;100434.44;2096318;28;46576;-63
2022/12/12 01:38:56;;;;;;;;;27.00;24.75;;;;;3.00;61.06;100436.19;2096203;28;46493;-64
2022/12/12 01:39:56;;;;;;;;;26.50;25.50;;;;;2.98;61.27;100444.03;2096373;28;46426;-63
2022/12/12 01:40:57;;;;;;;;;34.25;31.50;;;;;2.97;61.19;100434.44;2096131;28;46309;-64
2022/12/12 01:41:57;;;;;;;;;28.25;24.50;;;;;2.95;61.22;100433.53;2096301;28;46818;-63
2022/12/12 01:42:58;;;;;;;;;29.50;27.50;;;;;2.94;60.89;100437.91;2095934;28;46822;-64
2022/12/12 01:44:01;;;;;;;;;30.40;26.60;;;;;2.97;61.53;100433.56;2096137;28;46244;-63
2022/12/12 01:45:02;;;;;;;;;29.40;24.60;;;;;2.99;61.35;100437.06;2096352;28;46961;-62
2022/12/12 01:46:02;;;;;;;;;22.40;21.40;;;;;3.00;61.42;100433.56;2096166;28;46554;-64
2022/12/12 01:47:03;;;;;;;;;21.00;16.50;;;;;3.03;61.89;100434.44;2096290;28;46557;-63
2022/12/12 01:48:03;;;;;;;;;29.75;27.25;;;;;3.05;61.64;100439.69;2095962;28;45686;-63
2022/12/12 01:49:03;;;;;;;;;32.50;29.75;;;;;3.05;61.40;100439.69;2096017;28;45582;-64
2022/12/12 01:50:08;;;;;;;;;33.25;26.25;;;;;3.07;61.62;100436.22;2096260;28;46731;-64
2022/12/12 01:51:13;;;;;;;;;26.60;22.60;;;;;3.06;61.71;100437.09;2095787;28;46376;-62
2022/12/12 01:52:18;;;;;;;;;27.00;24.60;;;;;3.07;61.71;100430.97;2096427;28;46745;-64
2022/12/12 01:53:19;;;;;;;;;28.40;27.60;;;;;3.09;61.58;100433.59;2096144;28;46451;-63
2022/12/12 01:54:26;;;;;;;;;25.60;20.60;;;;;3.11;61.49;100431.88;2096041;28;46742;-61
2022/12/12 01:55:26;;;;;;;;;28.20;25.20;;;;;3.11;61.51;100427.50;2096101;28;46566;-62
2022/12/12 01:56:27;;;;;;;;;28.00;22.75;;;;;3.12;61.47;100431.00;2096241;28;46708;-64
2022/12/12 01:57:39;;;;;;;;;28.00;28.00;;;;;3.11;61.38;100435.34;2095976;28;45609;-63
2022/12/12 01:58:43;;;;;;;;;29.00;27.60;;;;;3.11;61.57;100440.59;2090126;28;46221;-62
2022/12/12 01:59:44;;;;;;;;;32.60;26.60;;;;;3.10;61.43;100435.34;2096001;28;46332;-64
2022/12/12 02:00:45;;;;;;;;;24.40;22.20;;;;;3.09;61.14;100428.38;2096214;28;46178;-62
2022/12/12 02:01:46;;;;;;;;;23.25;20.50;;;;;3.08;61.38;100439.72;2095886;28;46217;-63
2022/12/12 02:02:47;;;;;;;;;30.20;28.20;;;;;3.06;61.45;100436.22;2096048;28;45539;-64
2022/12/12 02:03:48;;;;;;;;;31.00;29.20;;;;;3.04;61.23;100432.69;2095949;28;46210;-64
2022/12/12 02:04:48;;;;;;;;;28.60;25.60;;;;;3.03;61.43;100430.94;2095980;28;46334;-64
2022/12/12 02:05:56;;;;;;;;;34.00;30.75;;;;;3.04;61.51;100435.31;2096285;28;46256;-61
2022/12/12 02:06:56;;;;;;;;;31.60;25.20;;;;;3.05;61.42;100439.69;2096086;28;46301;-64
2022/12/12 02:08:02;;;;;;;;;29.00;29.00;;;;;3.06;61.26;100438.84;2096141;28;46463;-63
2022/12/12 02:09:06;;;;;;;;;26.00;25.80;;;;;3.08;61.64;100442.34;2095899;28;46452;-63
2022/12/12 02:10:07;;;;;;;;;28.80;25.60;;;;;3.09;61.65;100436.22;2095991;28;46342;-64
2022/12/12 02:11:08;;;;;;;;;27.00;25.00;;;;;3.09;61.43;100434.47;2096462;28;46284;-63
2022/12/12 02:12:13;;;;;;;;;29.50;25.50;;;;;3.11;60.83;100437.09;2094954;28;46652;-62
2022/12/12 02:13:25;;;;;;;;;30.40;25.20;;;;;3.12;61.31;100439.72;2095806;28;46423;-63
2022/12/12 02:14:37;;;;;;;;;27.80;24.60;;;;;3.08;61.20;100427.50;2095885;28;46596;-63
2022/12/12 02:15:44;;;;;;;;;26.80;22.20;;;;;3.09;61.28;100433.59;2094908;28;46482;-62
2022/12/12 02:16:44;;;;;;;;;24.20;22.40;;;;;3.06;61.21;100433.59;2094603;28;46182;-64
2022/12/12 02:18:06;;;;;;;;;28.00;25.00;;;;;3.03;61.08;100434.44;2087614;28;46254;-63
2022/12/12 02:19:25;;;;;;;;;17.80;17.20;;;;;3.01;61.26;100438.81;2096066;28;46166;-64
2022/12/12 02:20:44;;;;;;;;;31.40;28.00;;;;;2.99;61.07;100437.94;2093206;28;46404;-60
2022/12/12 02:21:53;;;;;;;;;24.40;22.00;;;;;2.98;61.27;100436.19;2095832;28;46892;-65
2022/12/12 02:23:17;;;;;;;;;26.40;24.00;;;;;2.99;61.39;100437.94;2096021;28;46851;-62
2022/12/12 02:24:17;;;;;;;;;22.40;20.40;;;;;3.01;61.34;100436.19;2088073;28;46649;-63
2022/12/12 02:25:20;;;;;;;;;26.50;21.25;;;;;3.03;61.10;100433.56;2096112;28;46949;-64
2022/12/12 02:26:56;;;;;;;;;25.00;22.60;;;;;3.01;61.10;100437.94;2096133;28;46616;-60
2022/12/12 02:28:00;;;;;;;;;19.00;19.00;;;;;2.98;61.15;100432.69;2092059;28;46514;-62
2022/12/12 02:29:38;;;;;;;;;20.60;20.60;;;;;2.96;61.06;100437.91;2093829;28;46580;-64
2022/12/12 02:30:59;;;;;;;;;24.00;24.00;;;;;2.95;61.04;100434.41;2095878;28;46748;-63
2022/12/12 02:32:22;;;;;;;;;23.80;22.00;;;;;2.96;61.16;100432.69;2096018;28;46735;-62
2022/12/12 02:33:45;;;;;;;;;25.00;23.00;;;;;2.95;61.29;100439.66;2095956;28;46510;-62
2022/12/12 02:35:02;;;;;;;;;24.60;24.60;;;;;2.97;61.33;100438.78;2095650;28;47042;-64
2022/12/12 02:36:51;;;;;;;;;28.00;22.40;;;;;2.97;61.37;100441.41;2096055;28;46439;-63
2022/12/12 02:38:05;;;;;;;;;21.80;21.80;;;;;2.95;61.27;100437.03;2081466;28;46890;-63
2022/12/12 02:39:17;;;;;;;;;23.60;21.80;;;;;2.97;61.14;100441.41;2087091;28;46920;-63
2022/12/12 02:40:49;;;;;;;;;25.20;23.00;;;;;2.97;61.27;100434.44;2079337;28;46756;-63
2022/12/12 02:41:59;;;;;;;;;30.80;28.00;;;;;2.99;61.43;100442.28;2053901;28;46655;-64
2022/12/12 02:43:24;;;;;;;;;22.00;19.80;;;;;3.00;61.14;100444.03;2053889;28;46594;-64
2022/12/12 02:44:32;;;;;;;;;27.20;21.60;;;;;3.00;61.35;100444.91;2053790;28;46017;-59
2022/12/12 02:45:49;;;;;;;;;22.60;21.20;;;;;3.02;60.95;100440.56;2053922;28;46906;-62
2022/12/12 02:46:58;;;;;;;;;22.60;22.60;;;;;3.04;61.06;100441.44;2046081;28;46537;-61
2022/12/12 02:48:13;;;;;;;;;21.80;21.40;;;;;3.07;61.41;100441.47;2052932;28;46570;-63
2022/12/12 02:49:44;;;;;;;;;23.60;21.60;;;;;3.12;61.59;100436.22;2050621;28;46709;-63
2022/12/12 02:50:49;;;;;;;;;23.80;22.00;;;;;3.14;61.34;100437.97;2031012;28;46287;-63
2022/12/12 02:51:52;;;;;;;;;24.80;19.80;;;;;3.17;61.13;100445.84;2031674;28;46428;-63
2022/12/12 02:52:52;;;;;;;;;25.80;23.40;;;;;3.18;61.42;100436.28;2039204;28;46946;-65
2022/12/12 02:53:52;;;;;;;;;28.00;25.25;;;;;3.21;61.21;100436.28;2039434;28;46610;-65
2022/12/12 02:54:53;;;;;;;;;25.50;23.50;;;;;3.23;61.09;100431.91;2039203;28;46632;-65
2022/12/12 02:56:02;;;;;;;;;28.75;24.50;;;;;3.25;60.85;100438.91;2038934;28;46150;-65
2022/12/12 02:57:12;;;;;;;;;20.40;19.40;;;;;3.24;60.98;100429.28;2035236;28;47147;-66
2022/12/12 02:58:13;;;;;;;;;28.60;26.80;;;;;3.21;60.87;100437.16;2039422;28;46764;-63
2022/12/12 02:59:16;;;;;;;;;29.25;22.00;;;;;3.19;60.68;100436.28;2039214;28;46434;-64
2022/12/12 03:00:18;;;;;;;;;23.40;21.20;;;;;3.17;60.88;100431.88;2039002;28;47236;-62
2022/12/12 03:01:50;;;;;;;;;24.60;22.00;;;;;3.18;60.96;100439.78;2039203;28;46277;-64
2022/12/12 03:08:30;;;;;;;;;24.00;21.80;;;;;3.18;61.23;100423.16;2015723;29;45840;-63
2022/12/12 03:09:58;;;;;;;;;23.00;21.80;;;;;3.17;60.88;100421.38;2008447;29;46909;-62
2022/12/12 03:11:05;;;;;;;;;25.20;19.20;;;;;3.17;60.69;100424.00;2008269;29;46575;-65
2022/12/12 03:12:25;;;;;;;;;23.40;23.40;;;;;3.15;60.95;100426.63;2014037;29;46371;-62
2022/12/12 03:13:46;;;;;;;;;26.20;21.80;;;;;3.16;61.20;100425.75;2015554;29;46934;-64
2022/12/12 03:14:53;;;;;;;;;25.60;23.00;;;;;3.16;61.11;100428.38;2018638;29;46828;-60
2022/12/12 03:16:11;;;;;;;;;23.00;21.60;;;;;3.20;61.27;100424.03;2023600;29;46558;-63
2022/12/12 03:17:26;;;;;;;;;22.40;22.20;;;;;3.22;61.05;100425.78;2023464;29;45078;-65
2022/12/12 03:18:49;;;;;;;;;19.80;16.00;;;;;3.23;60.90;100431.91;2021269;29;45973;-61
2022/12/12 03:19:57;;;;;;;;;24.20;21.80;;;;;3.20;60.93;100419.66;2034483;28;46649;-61
2022/12/12 03:20:57;;;;;;;;;23.00;21.20;;;;;3.20;60.96;100431.91;2032879;28;46425;-62
2022/12/12 03:22:05;;;;;;;;;28.25;26.25;;;;;3.18;61.17;100425.78;2038695;28;46468;-65
2022/12/12 03:23:23;;;;;;;;;21.80;21.80;;;;;3.18;61.21;100428.41;2038969;28;46428;-63
2022/12/12 03:24:35;;;;;;;;;29.20;26.40;;;;;3.19;61.16;100424.91;2031403;28;46761;-63
2022/12/12 03:25:46;;;;;;;;;24.80;24.00;;;;;3.19;61.30;100428.41;2037106;28;46678;-62
2022/12/12 03:27:05;;;;;;;;;30.20;24.60;;;;;3.20;61.09;100419.66;2039956;28;46454;-63
2022/12/12 03:28:13;;;;;;;;;20.20;19.40;;;;;3.22;61.01;100417.91;2050218;28;46520;-61
2022/12/12 03:29:20;;;;;;;;;26.20;23.40;;;;;3.24;60.90;100413.56;2067599;28;45328;-61
2022/12/12 03:30:20;;;;;;;;;19.00;18.00;;;;;3.27;61.06;100417.94;2070721;28;46485;-63
2022/12/12 03:31:27;;;;;;;;;12.75;11.50;;;;;3.29;61.06;100410.94;2067338;28;46236;-63
2022/12/12 03:32:35;;;;;;;;;25.00;22.00;;;;;3.29;61.27;100423.16;2071239;28;46604;-64
2022/12/12 03:33:44;;;;;;;;;21.20;18.60;;;;;3.28;61.09;100414.44;2071056;28;46985;-62
2022/12/12 03:34:50;;;;;;;;;19.40;16.00;;;;;3.29;60.86;100418.81;2062894;28;46728;-64
2022/12/12 03:35:59;;;;;;;;;19.40;18.40;;;;;3.27;60.94;100412.69;2063482;28;46548;-63
2022/12/12 03:37:08;;;;;;;;;20.40;16.40;;;;;3.27;61.06;100419.66;2070860;28;46818;-63
2022/12/12 03:38:37;;;;;;;;;22.60;21.00;;;;;3.28;61.15;100424.03;2071249;28;46461;-64
2022/12/12 03:39:43;;;;;;;;;25.40;23.40;;;;;3.28;60.98;100421.41;2054648;28;46381;-63
2022/12/12 03:40:54;;;;;;;;;26.60;20.60;;;;;3.27;61.17;100415.31;2067256;28;46542;-62
2022/12/12 03:42:25;;;;;;;;;22.40;21.60;;;;;3.29;61.41;100425.78;2078791;28;46676;-62
2022/12/12 03:43:39;;;;;;;;;28.20;18.60;;;;;3.30;61.28;100417.06;2038993;28;46514;-63
2022/12/12 03:45:05;;;;;;;;;19.60;19.60;;;;;3.32;61.08;100418.84;2031892;28;46822;-63
2022/12/12 03:46:18;;;;;;;;;22.00;22.00;;;;;3.34;61.31;100424.09;2035109;28;46743;-62
2022/12/12 03:47:31;;;;;;;;;22.40;21.40;;;;;3.35;61.25;100421.47;2038654;28;46743;-63
2022/12/12 03:48:37;;;;;;;;;27.20;25.00;;;;;3.38;61.28;100425.81;2039421;28;46339;-60
2022/12/12 03:49:48;;;;;;;;;23.20;23.20;;;;;3.40;61.18;100424.09;2037921;28;46473;-63
2022/12/12 03:51:03;;;;;;;;;30.40;23.40;;;;;3.40;61.07;100424.97;2038773;28;46755;-63
2022/12/12 03:52:32;;;;;;;;;24.60;20.80;;;;;3.42;61.02;100427.56;2038821;28;46047;-63
2022/12/12 03:53:52;;;;;;;;;27.00;23.60;;;;;3.41;60.95;100428.44;2015542;29;47009;-63
2022/12/12 03:55:37;;;;;;;;;14.20;10.40;;;;;3.41;60.82;100433.69;2015033;29;45959;-66
2022/12/12 03:57:10;;;;;;;;;21.40;18.40;;;;;3.39;60.82;100433.69;1999833;29;46459;-64
2022/12/12 03:58:19;;;;;;;;;27.20;25.20;;;;;3.35;60.63;100428.44;1992185;29;46587;-63
2022/12/12 03:59:29;;;;;;;;;32.00;27.60;;;;;3.34;60.64;100421.47;1991351;29;46789;-61
2022/12/12 04:00:36;;;;;;;;;25.80;21.60;;;;;3.36;60.82;100427.56;1992273;29;46535;-62
2022/12/12 04:01:45;;;;;;;;;23.00;20.60;;;;;3.35;60.59;100436.31;1992236;29;45991;-61
2022/12/12 04:03:14;;;;;;;;;25.40;22.80;;;;;3.33;60.48;100435.44;1992196;29;46780;-64
2022/12/12 04:04:45;;;;;;;;;25.00;22.40;;;;;3.32;60.72;100438.94;1991920;29;46875;-62
2022/12/12 04:07:31;;;;;;;;;29.00;23.40;;;;;3.32;60.48;100441.56;1992353;29;46837;-62
2022/12/12 04:08:33;;;;;;;;;24.80;24.40;;;;;3.31;60.69;100440.69;1991888;29;46641;-63
2022/12/12 04:14:34;;;;;;;;;19.20;19.00;;;;;3.30;60.86;100444.16;1992145;29;46665;-65
2022/12/12 04:16:03;;;;;;;;;23.40;19.80;;;;;3.30;60.84;100446.78;1992194;29;47003;-64
2022/12/12 04:17:05;;;;;;;;;24.20;22.60;;;;;3.31;60.85;100442.44;2000388;29;46439;-64
2022/12/12 04:18:08;;;;;;;;;23.60;20.20;;;;;3.33;61.13;100443.31;2015178;29;46551;-63
2022/12/12 04:24:29;;;;;;;;;22.60;21.00;;;;;3.41;61.26;100454.69;1999740;29;46326;-63
2022/12/12 04:27:26;;;;;;;;;22.00;20.00;;;;;3.40;60.93;100455.56;1999409;29;46414;-63
2022/12/12 04:28:29;;;;;;;;;19.60;18.00;;;;;3.42;60.86;100459.94;1999427;29;46512;-61
2022/12/12 04:29:46;;;;;;;;;27.20;23.20;;;;;3.43;60.77;100452.94;1999871;29;47002;-59
2022/12/12 04:30:46;;;;;;;;;23.60;20.00;;;;;3.43;60.85;100459.09;1998371;29;47247;-63
2022/12/12 04:31:49;;;;;;;;;22.50;22.50;;;;;3.46;60.87;100459.09;2028225;28;46382;-63
2022/12/12 04:33:04;;;;;;;;;27.00;22.00;;;;;3.46;60.66;100453.84;2030652;28;46602;-63
2022/12/12 04:34:14;;;;;;;;;23.60;22.00;;;;;3.48;60.72;100454.72;2038477;28;46669;-65
2022/12/12 04:35:41;;;;;;;;;29.40;23.80;;;;;3.50;61.00;100465.22;2046162;28;47302;-63
2022/12/12 04:36:46;;;;;;;;;17.80;17.80;;;;;3.51;61.07;100456.47;2060487;28;46797;-63
2022/12/12 04:37:56;;;;;;;;;21.60;18.80;;;;;3.53;60.96;100454.72;2062516;28;45659;-63
2022/12/12 04:39:00;;;;;;;;;22.60;19.80;;;;;3.52;60.58;100459.09;2063092;28;45594;-64
2022/12/12 04:40:06;;;;;;;;;21.20;20.60;;;;;3.51;60.64;100456.47;2062539;28;47251;-63
2022/12/12 04:41:11;;;;;;;;;22.60;20.40;;;;;3.52;60.65;100460.84;2062352;28;46795;-63
2022/12/12 04:42:16;;;;;;;;;24.40;22.40;;;;;3.49;60.33;100459.09;2062517;28;46589;-64
2022/12/12 04:43:21;;;;;;;;;24.20;21.20;;;;;3.49;60.65;100456.47;2062567;28;46776;-62
2022/12/12 04:44:25;;;;;;;;;30.60;26.20;;;;;3.48;60.39;100452.09;2062472;28;46648;-62
2022/12/12 04:45:49;;;;;;;;;26.80;24.40;;;;;3.48;60.72;100445.97;2063733;28;46419;-63
2022/12/12 04:46:53;;;;;;;;;23.60;23.60;;;;;3.49;60.84;100458.22;2055379;28;45739;-62
2022/12/12 04:47:57;;;;;;;;;26.60;22.60;;;;;3.48;60.82;100459.09;2061980;28;46862;-63
2022/12/12 04:49:05;;;;;;;;;24.80;22.20;;;;;3.48;60.74;100457.34;2062908;28;45825;-64
2022/12/12 04:50:07;;;;;;;;;24.00;22.20;;;;;3.49;60.72;100461.72;2062519;28;46654;-62
2022/12/12 04:51:10;;;;;;;;;26.00;21.60;;;;;3.49;60.84;100459.09;2062449;28;47866;-63
2022/12/12 04:52:13;;;;;;;;;30.40;29.00;;;;;3.50;60.74;100465.22;2062788;28;46212;-62
2022/12/12 04:53:18;;;;;;;;;21.20;21.20;;;;;3.50;60.81;100466.09;2062674;28;46712;-63
2022/12/12 04:54:39;;;;;;;;;20.60;19.60;;;;;3.48;60.88;100459.97;2045570;28;46729;-62
2022/12/12 04:55:45;;;;;;;;;21.40;21.00;;;;;3.48;60.49;100462.59;2046559;28;46602;-63
2022/12/12 04:56:53;;;;;;;;;22.40;20.80;;;;;3.49;60.70;100461.72;2048044;28;45693;-63
2022/12/12 04:57:54;;;;;;;;;25.20;24.00;;;;;3.51;60.98;100459.09;2065476;28;46848;-62
2022/12/12 04:58:56;;;;;;;;;24.60;24.00;;;;;3.52;60.94;100464.34;2078779;28;46922;-62
2022/12/12 04:59:56;;;;;;;;;27.00;25.40;;;;;3.53;60.90;100459.97;2078805;28;46901;-64
2022/12/12 05:01:05;;;;;;;;;22.75;22.75;;;;;3.52;60.68;100455.59;2062143;28;46579;-63
2022/12/12 05:02:19;;;;;;;;;28.80;25.20;;;;;3.49;60.79;100458.22;2048532;28;46600;-64
2022/12/12 05:03:31;;;;;;;;;24.80;21.20;;;;;3.49;60.68;100453.84;2069258;28;46808;-62
2022/12/12 05:04:37;;;;;;;;;25.80;24.20;;;;;3.50;60.60;100457.34;2071044;28;46258;-63
2022/12/12 05:05:47;;;;;;;;;25.00;21.20;;;;;3.50;61.05;100455.59;2078898;28;47067;-64
2022/12/12 05:06:54;;;;;;;;;26.20;25.00;;;;;3.50;60.94;100452.97;2078718;28;46630;-64
2022/12/12 05:08:06;;;;;;;;;23.20;21.20;;;;;3.54;61.07;100466.97;2078663;28;47749;-63
2022/12/12 05:09:07;;;;;;;;;26.60;25.00;;;;;3.54;60.96;100454.72;2070847;28;46918;-63
2022/12/12 05:10:13;;;;;;;;;33.25;28.75;;;;;3.55;60.71;100458.22;2066544;28;46450;-63
2022/12/12 05:11:17;;;;;;;;;25.40;21.40;;;;;3.54;60.66;100452.09;2071119;28;46440;-64
2022/12/12 05:12:17;;;;;;;;;26.80;26.00;;;;;3.54;60.99;100457.34;2070845;28;47094;-65
2022/12/12 05:13:20;;;;;;;;;25.25;24.50;;;;;3.55;60.87;100453.84;2074650;28;45994;-62
2022/12/12 05:14:21;;;;;;;;;21.80;21.80;;;;;3.57;61.12;100447.75;2078860;28;46440;-63
2022/12/12 05:15:22;;;;;;;;;28.75;25.00;;;;;3.57;60.89;100447.75;2078387;28;47154;-64
2022/12/12 05:16:36;;;;;;;;;27.40;25.80;;;;;3.59;60.94;100452.13;2078757;28;46373;-63
2022/12/12 05:17:43;;;;;;;;;31.00;25.40;;;;;3.59;61.03;100452.13;2077804;28;46384;-63
2022/12/12 05:18:44;;;;;;;;;28.60;25.00;;;;;3.60;60.77;100456.50;2078785;28;46866;-65
2022/12/12 05:19:44;;;;;;;;;24.50;22.00;;;;;3.60;60.87;100453.88;2079810;28;46395;-65
2022/12/12 05:20:44;;;;;;;;;24.00;24.00;;;;;3.59;60.77;100457.38;2078566;28;46745;-63
2022/12/12 05:21:45;;;;;;;;;26.75;24.00;;;;;3.58;60.58;100463.50;2078559;28;46490;-64
2022/12/12 05:22:45;;;;;;;;;26.25;24.25;;;;;3.56;60.67;100457.38;2078790;28;46470;-64
2022/12/12 05:23:45;;;;;;;;;28.75;24.75;;;;;3.54;60.83;100459.09;2078426;28;46391;-64
2022/12/12 05:24:46;;;;;;;;;21.75;20.50;;;;;3.53;60.80;100460.84;2061992;28;46300;-64